Time;durP1;ratioP1;P1;durP2;ratioP2;P2;SDS_P1;SDS_P2;PMS_P1;PMS_P2;Temp;Humidity;BMP_temperature;BMP_pressure;BME280_temperature;BME280_humidity;BME280_pressure;Samples;Min_cycle;Max_cycle;Signal;HPM_P1;HPM_P2
2022/07/12 00:01:31;;;;;;;7.38;4.55;;;13.80;99.90;;;;;;6219739;23;20095;-86
2022/07/12 00:03:56;;;;;;;6.05;4.30;;;13.70;99.90;;;;;;6246032;23;20383;-86
2022/07/12 00:06:22;;;;;;;6.50;4.10;;;13.70;99.90;;;;;;6219210;23;20051;-85
2022/07/12 00:08:48;;;;;;;6.82;4.07;;;13.70;99.90;;;;;;6219149;23;20032;-86
2022/07/12 00:11:13;;;;;;;7.85;4.15;;;13.70;99.90;;;;;;6246217;23;20062;-85
2022/07/12 00:13:39;;;;;;;5.45;4.25;;;13.70;99.90;;;;;;6246254;23;20066;-85
2022/07/12 00:16:05;;;;;;;8.95;4.15;;;13.70;99.90;;;;;;6218636;23;20471;-85
2022/07/12 00:18:31;;;;;;;5.72;3.97;;;13.70;99.90;;;;;;6219260;23;20024;-86
2022/07/12 00:20:57;;;;;;;6.78;4.30;;;13.70;99.90;;;;;;6245952;23;20027;-85
2022/07/12 00:23:23;;;;;;;6.93;3.97;;;13.70;99.90;;;;;;6194169;23;20020;-85
2022/07/12 00:25:49;;;;;;;6.47;4.20;;;13.70;99.90;;;;;;6245969;23;20510;-85
2022/07/12 00:28:15;;;;;;;7.13;4.35;;;13.70;99.90;;;;;;6219232;23;20027;-85
2022/07/12 00:30:42;;;;;;;5.95;4.25;;;13.70;99.90;;;;;;6245930;23;20023;-86
2022/07/12 00:33:08;;;;;;;4.45;3.67;;;13.90;99.90;;;;;;6245943;23;20023;-85
2022/07/12 00:35:34;;;;;;;6.38;4.07;;;13.70;99.90;;;;;;6218787;23;20432;-85
2022/07/12 00:38:00;;;;;;;4.50;3.72;;;13.70;99.90;;;;;;6246079;23;20027;-86
2022/07/12 00:40:25;;;;;;;5.85;3.90;;;13.70;99.90;;;;;;6218989;23;20072;-90
2022/07/12 00:42:51;;;;;;;5.43;4.00;;;13.70;99.90;;;;;;6246109;23;20027;-85
2022/07/12 00:45:17;;;;;;;5.53;3.90;;;13.70;99.90;;;;;;6245803;23;20020;-85
2022/07/12 00:47:45;;;;;;;6.00;3.95;;;13.60;99.90;;;;;;6245799;23;20023;-85
2022/07/12 00:50:16;;;;;;;8.32;4.00;;;13.60;99.90;;;;;;6245399;23;20012;-85
2022/07/12 00:52:44;;;;;;;5.18;4.22;;;13.60;99.90;;;;;;6245662;23;20016;-85
2022/07/12 00:55:11;;;;;;;5.00;3.58;;;13.60;99.90;;;;;;6245664;23;20016;-85
2022/07/12 00:57:37;;;;;;;5.53;4.05;;;13.60;99.90;;;;;;6245656;23;20020;-85
2022/07/12 01:00:06;;;;;;;6.95;4.40;;;13.50;99.90;;;;;;6245621;23;20020;-85
2022/07/12 01:02:34;;;;;;;6.10;4.13;;;13.50;99.90;;;;;;6219023;23;20016;-86
2022/07/12 01:05:00;;;;;;;6.00;4.10;;;13.50;99.90;;;;;;6218260;23;20016;-85
2022/07/12 01:07:26;;;;;;;8.02;3.60;;;13.50;99.90;;;;;;6218935;23;20020;-84
2022/07/12 01:09:54;;;;;;;5.85;3.85;;;13.50;99.90;;;;;;6245477;23;20020;-87
2022/07/12 01:12:21;;;;;;;5.82;3.67;;;13.40;99.90;;;;;;6218826;23;20395;-85
2022/07/12 01:14:48;;;;;;;5.53;3.80;;;13.40;99.90;;;;;;6245329;23;20020;-84
2022/07/12 01:17:20;;;;;;;7.13;3.70;;;13.30;99.90;;;;;;6245401;23;20020;-85
2022/07/12 01:19:47;;;;;;;5.43;3.78;;;13.30;99.90;;;;;;6245474;23;20372;-85
2022/07/12 01:22:15;;;;;;;6.13;3.90;;;13.20;99.90;;;;;;6245521;23;20042;-85
2022/07/12 01:24:41;;;;;;;6.15;4.20;;;13.30;99.90;;;;;;6245504;23;20016;-84
2022/07/12 01:27:08;;;;;;;4.50;3.58;;;13.20;99.90;;;;;;6245533;23;20020;-84
2022/07/12 01:29:34;;;;;;;7.65;3.45;;;13.10;99.90;;;;;;6245445;23;20436;-91
2022/07/12 01:32:24;;;;;;;4.93;3.55;;;13.10;99.90;;;;;;6218794;23;20066;-84
2022/07/12 01:34:49;;;;;;;5.45;4.03;;;13.10;99.90;;;;;;6218437;23;20024;-85
2022/07/12 01:37:15;;;;;;;4.43;3.50;;;12.90;99.90;;;;;;6218245;23;20016;-85
2022/07/12 01:39:43;;;;;;;4.80;3.70;;;12.90;99.90;;;;;;6218649;23;20074;-85
2022/07/12 01:42:08;;;;;;;5.75;3.55;;;12.80;99.90;;;;;;6245386;23;20024;-84
2022/07/12 01:44:34;;;;;;;7.13;4.13;;;12.90;99.90;;;;;;6245425;23;20024;-85
2022/07/12 01:47:00;;;;;;;4.90;3.80;;;12.90;99.90;;;;;;6245257;23;20110;-85
2022/07/12 01:49:25;;;;;;;3.80;3.30;;;12.80;99.90;;;;;;6218609;23;20371;-84
2022/07/12 01:51:51;;;;;;;5.43;3.63;;;12.70;99.90;;;;;;6218743;23;20016;-84
2022/07/12 01:54:17;;;;;;;5.07;3.47;;;12.70;99.90;;;;;;6245405;23;20027;-84
2022/07/12 01:56:43;;;;;;;5.68;3.50;;;12.70;99.90;;;;;;6218133;23;20340;-84
2022/07/12 01:59:09;;;;;;;5.97;3.97;;;12.70;99.90;;;;;;6192821;23;20027;-84
2022/07/12 02:01:37;;;;;;;4.50;3.75;;;12.60;99.90;;;;;;6218592;23;20020;-87
2022/07/12 02:04:05;;;;;;;5.80;3.45;;;12.60;99.90;;;;;;6245394;23;20078;-85
2022/07/12 02:06:33;;;;;;;5.63;3.30;;;12.60;99.90;;;;;;6218740;23;20347;-84
2022/07/12 02:08:58;;;;;;;5.93;3.40;;;12.60;99.90;;;;;;6218435;23;20026;-84
2022/07/12 02:11:24;;;;;;;4.10;3.40;;;12.50;99.90;;;;;;6218841;23;20421;-84
2022/07/12 02:13:50;;;;;;;4.72;3.22;;;12.50;99.90;;;;;;6245379;23;20016;-84
2022/07/12 02:16:16;;;;;;;5.03;3.17;;;12.50;99.90;;;;;;6245290;23;20328;-85
2022/07/12 02:18:42;;;;;;;5.15;3.13;;;12.40;99.90;;;;;;6246536;23;20069;-84
2022/07/12 02:21:08;;;;;;;4.47;3.33;;;12.40;99.90;;;;;;6220313;23;20062;-83
2022/07/12 02:23:33;;;;;;;5.88;3.67;;;12.30;99.90;;;;;;6220575;23;20024;-84
2022/07/12 02:25:59;;;;;;;6.40;3.00;;;12.30;99.90;;;;;;6247354;23;20018;-84
2022/07/12 02:28:25;;;;;;;3.97;3.20;;;12.30;99.90;;;;;;6247230;23;20028;-84
2022/07/12 02:30:50;;;;;;;4.13;3.03;;;12.20;99.90;;;;;;6247099;23;20023;-84
2022/07/12 02:33:16;;;;;;;4.65;2.75;;;12.20;99.90;;;;;;6220262;23;20016;-84
2022/07/12 02:35:43;;;;;;;4.03;3.00;;;12.20;99.90;;;;;;6247026;23;20016;-84
2022/07/12 02:38:08;;;;;;;5.53;3.40;;;12.20;99.90;;;;;;6220251;23;20121;-84
2022/07/12 02:43:22;;;;;;;4.72;3.25;;;12.00;99.90;;;;;;6220027;23;20028;-84
2022/07/12 02:45:48;;;;;;;3.85;2.67;;;12.10;99.90;;;;;;6220097;23;20411;-84
2022/07/12 02:48:14;;;;;;;4.70;2.63;;;12.00;99.90;;;;;;6220334;23;20051;-84
2022/07/12 02:50:40;;;;;;;4.60;3.10;;;12.00;99.90;;;;;;6246809;23;20016;-84
2022/07/12 02:53:07;;;;;;;4.00;3.03;;;11.90;99.90;;;;;;6220081;23;20012;-83
2022/07/12 02:55:33;;;;;;;4.47;2.95;;;11.90;99.90;;;;;;6246415;23;20440;-84
2022/07/12 02:57:59;;;;;;;4.55;2.75;;;11.90;99.90;;;;;;6246844;23;20096;-84
2022/07/12 03:00:24;;;;;;;3.80;2.25;;;11.90;99.90;;;;;;6219958;23;20062;-83
2022/07/12 03:02:50;;;;;;;3.05;2.20;;;11.90;99.90;;;;;;6220029;23;20020;-84
2022/07/12 03:05:16;;;;;;;2.53;1.92;;;11.90;99.90;;;;;;6219997;23;20059;-84
2022/07/12 03:07:41;;;;;;;2.30;1.70;;;11.80;99.90;;;;;;6219807;23;20019;-84
2022/07/12 03:10:08;;;;;;;2.67;1.92;;;11.70;99.90;;;;;;6246611;23;20404;-84
2022/07/12 03:12:34;;;;;;;2.30;1.85;;;11.80;99.90;;;;;;6246704;23;20077;-83
2022/07/12 03:15:01;;;;;;;4.00;2.25;;;11.70;99.90;;;;;;6246344;23;20023;-84
2022/07/12 03:17:26;;;;;;;3.10;1.90;;;11.70;99.90;;;;;;6194677;23;20094;-83
2022/07/12 03:19:52;;;;;;;3.08;2.20;;;11.60;99.90;;;;;;6220068;23;20098;-83
2022/07/12 03:22:18;;;;;;;2.88;2.05;;;11.60;99.90;;;;;;6246663;23;20022;-84
2022/07/12 03:24:43;;;;;;;6.25;2.28;;;11.70;99.90;;;;;;6246742;23;20017;-89
2022/07/12 03:27:09;;;;;;;3.92;2.10;;;11.60;99.90;;;;;;6246600;23;20016;-85
2022/07/12 03:29:37;;;;;;;3.38;2.20;;;11.60;99.90;;;;;;6218969;23;20432;-83
2022/07/12 03:32:03;;;;;;;2.92;2.45;;;11.70;99.90;;;;;;6246907;23;20016;-84
2022/07/12 03:34:29;;;;;;;3.35;2.38;;;11.60;99.90;;;;;;6246664;23;20027;-83
2022/07/12 03:36:54;;;;;;;2.67;2.25;;;11.50;99.90;;;;;;6219659;23;20340;-82
2022/07/12 03:39:20;;;;;;;2.67;2.03;;;11.60;99.90;;;;;;6219701;23;20095;-83
2022/07/12 03:41:45;;;;;;;3.00;1.85;;;11.60;99.90;;;;;;6219345;23;20095;-83
2022/07/12 03:44:11;;;;;;;4.25;2.03;;;11.50;99.90;;;;;;6246382;23;20052;-83
2022/07/12 03:46:37;;;;;;;3.15;1.83;;;11.60;99.90;;;;;;6245985;23;20016;-83
2022/07/12 03:49:02;;;;;;;2.40;1.90;;;11.60;99.90;;;;;;6219421;23;20065;-83
2022/07/12 03:51:28;;;;;;;2.42;1.70;;;11.60;99.90;;;;;;6219685;23;20024;-83
2022/07/12 03:53:54;;;;;;;3.45;2.10;;;11.60;99.90;;;;;;6246198;23;20016;-83
2022/07/12 03:59:04;;;;;;;2.38;1.90;;;11.60;99.90;;;;;;6219242;22;20020;-89
2022/07/12 04:01:30;;;;;;;2.72;2.00;;;11.60;99.90;;;;;;6246117;23;20012;-83
2022/07/12 04:03:56;;;;;;;2.90;2.00;;;11.60;99.90;;;;;;6194500;23;20091;-83
2022/07/12 04:06:22;;;;;;;3.47;2.25;;;11.60;99.90;;;;;;6246154;23;20474;-83
2022/07/12 04:08:48;;;;;;;5.40;2.90;;;11.70;99.90;;;;;;6246108;23;20314;-83
2022/07/12 04:11:13;;;;;;;9.25;3.85;;;11.80;99.90;;;;;;6219420;23;20317;-83
2022/07/12 04:13:39;;;;;;;5.63;4.10;;;11.70;99.90;;;;;;6218797;23;20460;-82
2022/07/12 04:16:05;;;;;;;7.75;4.47;;;11.80;99.90;;;;;;6245869;23;20094;-83
2022/07/12 04:18:31;;;;;;;7.50;5.18;;;11.90;99.90;;;;;;6219494;23;20070;-83
2022/07/12 04:20:57;;;;;;;8.90;5.47;;;12.00;99.90;;;;;;6245884;23;20008;-83
2022/07/12 04:23:23;;;;;;;11.70;6.10;;;12.10;99.90;;;;;;6219111;23;20098;-83
2022/07/12 04:25:48;;;;;;;11.50;6.40;;;12.30;99.90;;;;;;6245968;23;20024;-83
2022/07/12 04:28:14;;;;;;;7.30;5.05;;;12.40;99.90;;;;;;6246069;23;20013;-83
2022/07/12 04:30:43;;;;;;;11.15;6.28;;;12.50;99.90;;;;;;6245813;23;20019;-83
2022/07/12 04:33:08;;;;;;;10.93;6.57;;;12.50;99.90;;;;;;6194054;23;20020;-83
2022/07/12 04:35:34;;;;;;;13.38;6.63;;;12.60;99.90;;;;;;6245906;23;20400;-84
2022/07/12 04:38:00;;;;;;;9.48;5.47;;;12.70;99.90;;;;;;6245909;23;20016;-84
2022/07/12 04:40:25;;;;;;;12.23;6.55;;;12.80;99.90;;;;;;6245729;23;20502;-83
2022/07/12 04:42:51;;;;;;;10.90;6.50;;;12.80;99.90;;;;;;6218922;23;20020;-85
2022/07/12 04:45:17;;;;;;;14.07;7.03;;;12.90;99.90;;;;;;6193511;23;20093;-84
2022/07/12 04:47:42;;;;;;;8.18;5.65;;;13.00;99.90;;;;;;6218644;23;20016;-83
2022/07/12 04:50:08;;;;;;;10.40;7.18;;;13.00;99.90;;;;;;6193242;23;20019;-84
2022/07/12 04:52:35;;;;;;;12.18;7.13;;;13.10;99.90;;;;;;6219012;23;20309;-83
2022/07/12 04:55:00;;;;;;;13.30;7.90;;;13.20;99.90;;;;;;6193975;23;20020;-82
2022/07/12 04:57:26;;;;;;;14.00;8.27;;;13.20;99.90;;;;;;6245718;23;20023;-83
2022/07/12 04:59:52;;;;;;;13.50;8.40;;;13.30;99.90;;;;;;6245733;23;20023;-85
2022/07/12 05:02:18;;;;;;;10.70;6.97;;;13.30;99.90;;;;;;6218973;23;20020;-82
2022/07/12 05:04:44;;;;;;;11.23;7.13;;;13.40;99.90;;;;;;6245578;23;20016;-87
2022/07/12 05:07:09;;;;;;;11.60;7.47;;;13.60;99.90;;;;;;6193106;23;20455;-84
2022/07/12 05:09:35;;;;;;;11.23;7.63;;;13.60;99.90;;;;;;6245561;23;20023;-82
2022/07/12 05:12:01;;;;;;;8.82;7.18;;;13.70;99.90;;;;;;6245779;23;20020;-87
2022/07/12 05:14:26;;;;;;;9.57;7.50;;;13.80;99.90;;;;;;6245819;23;20016;-84
2022/07/12 05:16:52;;;;;;;8.93;6.93;;;13.90;99.90;;;;;;6245445;23;20444;-85
2022/07/12 05:19:18;;;;;;;8.90;6.57;;;13.90;99.90;;;;;;6192948;23;20028;-85
2022/07/12 05:21:44;;;;;;;8.15;6.18;;;14.00;99.90;;;;;;6218870;23;20461;-85
2022/07/12 05:24:10;;;;;;;7.95;6.00;;;14.20;99.90;;;;;;6245594;23;20091;-84
2022/07/12 05:26:36;;;;;;;8.02;6.07;;;14.30;99.90;;;;;;6245638;23;20098;-86
2022/07/12 05:29:02;;;;;;;7.60;5.75;;;14.40;99.90;;;;;;6218492;23;20360;-83
2022/07/12 05:31:28;;;;;;;6.47;5.05;;;14.60;99.90;;;;;;6245573;23;20066;-82
2022/07/12 05:33:54;;;;;;;5.60;4.95;;;14.70;99.90;;;;;;6193052;23;20374;-83
2022/07/12 05:36:20;;;;;;;5.97;4.53;;;14.90;99.90;;;;;;6218686;23;20016;-84
2022/07/12 05:38:46;;;;;;;7.15;4.88;;;15.10;99.90;;;;;;6218562;23;20017;-84
2022/07/12 05:41:12;;;;;;;5.22;4.55;;;15.40;99.90;;;;;;6218163;23;20090;-85
2022/07/12 05:43:38;;;;;;;4.53;3.92;;;15.60;99.90;;;;;;6219058;23;20020;-83
2022/07/12 05:46:04;;;;;;;4.90;4.00;;;15.90;99.90;;;;;;6245619;23;20379;-83
2022/07/12 05:48:29;;;;;;;4.80;3.80;;;16.00;99.90;;;;;;6245251;23;20012;-86
2022/07/12 05:53:21;;;;;;;4.45;4.03;;;16.20;99.90;;;;;;6245545;23;20095;-84
2022/07/12 05:53:41;;;;;;;3.63;3.33;;;16.40;99.90;;;;;;6220133;23;20077;-85
2022/07/12 05:56:06;;;;;;;4.00;3.45;;;16.60;99.90;;;;;;6247628;23;20441;-85
2022/07/12 05:58:32;;;;;;;5.65;3.15;;;16.80;99.90;;;;;;6248024;23;20151;-86
2022/07/12 06:00:57;;;;;;;4.20;3.15;;;16.80;99.90;;;;;;6220576;23;20099;-85
2022/07/12 06:03:23;;;;;;;5.32;3.50;;;16.90;99.90;;;;;;6247999;23;20091;-85
2022/07/12 06:05:48;;;;;;;5.82;3.28;;;17.00;99.90;;;;;;6247423;23;20090;-85
2022/07/12 06:08:14;;;;;;;3.40;3.00;;;17.00;99.90;;;;;;6247771;23;20027;-85
2022/07/12 06:10:40;;;;;;;3.40;3.10;;;17.10;99.90;;;;;;6220574;23;20440;-85
2022/07/12 06:13:05;;;;;;;3.90;3.53;;;17.10;99.90;;;;;;6247631;23;20023;-85
2022/07/12 06:15:32;;;;;;;4.38;3.53;;;17.30;99.90;;;;;;6247458;23;20150;-86
2022/07/12 06:17:58;;;;;;;4.40;3.53;;;17.20;99.90;;;;;;6195255;23;20031;-86
2022/07/12 06:20:24;;;;;;;3.90;3.50;;;17.40;99.90;;;;;;6247536;23;20020;-85
2022/07/12 06:22:50;;;;;;;4.78;4.22;;;17.50;99.90;;;;;;6247301;23;20020;-86
2022/07/12 06:25:15;;;;;;;5.93;4.13;;;17.60;99.90;;;;;;6220827;23;20031;-86
2022/07/12 06:27:41;;;;;;;9.18;4.72;;;17.60;99.90;;;;;;6220607;23;20424;-86
2022/07/12 06:30:07;;;;;;;4.95;4.45;;;17.70;99.90;;;;;;6220210;23;20055;-85
2022/07/12 06:32:33;;;;;;;6.57;4.90;;;17.70;99.90;;;;;;6219898;23;20052;-86
2022/07/12 06:34:59;;;;;;;5.13;4.57;;;17.80;99.90;;;;;;6220494;23;20008;-86
2022/07/12 06:37:24;;;;;;;6.82;5.43;;;17.80;99.90;;;;;;6220517;23;20020;-86
2022/07/12 06:39:50;;;;;;;7.07;6.00;;;17.80;99.90;;;;;;6247321;23;20091;-85
2022/07/12 06:42:16;;;;;;;7.43;6.70;;;17.90;99.90;;;;;;6220332;23;20455;-87
2022/07/12 06:44:41;;;;;;;7.95;7.25;;;18.00;99.90;;;;;;6220313;23;20012;-86
2022/07/12 06:47:07;;;;;;;7.90;7.03;;;18.00;99.90;;;;;;6194815;23;20109;-89
2022/07/12 06:49:32;;;;;;;8.75;7.18;;;18.00;99.90;;;;;;6220304;23;20026;-86
2022/07/12 06:51:58;;;;;;;7.80;7.10;;;18.10;99.90;;;;;;6247329;23;20122;-87
2022/07/12 06:54:25;;;;;;;8.48;6.55;;;18.10;99.90;;;;;;6219899;23;20348;-86
2022/07/12 06:56:50;;;;;;;9.43;6.30;;;18.10;99.90;;;;;;6194425;23;20016;-85
2022/07/12 06:59:16;;;;;;;6.07;5.32;;;18.10;99.90;;;;;;6246981;23;20012;-87
2022/07/12 07:01:43;;;;;;;6.00;5.38;;;18.20;99.90;;;;;;6219976;23;20020;-87
2022/07/12 07:04:08;;;;;;;6.30;5.30;;;18.30;99.90;;;;;;6246638;23;20031;-86
2022/07/12 07:06:34;;;;;;;5.47;4.97;;;18.30;99.90;;;;;;6247169;23;20331;-92
2022/07/12 07:09:00;;;;;;;6.70;5.40;;;18.40;99.90;;;;;;6220233;23;20052;-91
2022/07/12 07:11:26;;;;;;;5.95;5.03;;;18.50;99.90;;;;;;6247789;23;20368;-89
2022/07/12 07:13:53;;;;;;;6.88;5.13;;;18.70;99.90;;;;;;6219300;23;20054;-86
2022/07/12 07:16:22;;;;;;;5.13;4.60;;;19.00;99.90;;;;;;6217883;23;20020;-85
2022/07/12 07:18:47;;;;;;;5.32;4.82;;;19.60;99.90;;;;;;6218710;23;20031;-87
2022/07/12 07:21:13;;;;;;;5.72;4.30;;;20.10;99.90;;;;;;6218698;23;20348;-86
2022/07/12 07:23:38;;;;;;;4.65;4.20;;;20.70;99.90;;;;;;6245936;23;20452;-86
2022/07/12 07:26:04;;;;;;;6.63;3.90;;;21.10;99.90;;;;;;6245904;23;20022;-87
2022/07/12 07:28:30;;;;;;;4.45;4.05;;;21.50;99.90;;;;;;6245385;23;20027;-88
2022/07/12 07:30:56;;;;;;;3.90;3.60;;;22.00;99.90;;;;;;6246489;23;20067;-87
2022/07/12 07:33:22;;;;;;;3.63;3.33;;;22.60;99.90;;;;;;6219235;23;20082;-88
2022/07/12 07:35:52;;;;;;;3.83;3.53;;;23.20;99.90;;;;;;6219497;23;20046;-87
2022/07/12 07:38:19;;;;;;;3.70;3.28;;;23.80;99.90;;;;;;6247412;23;20031;-88
2022/07/12 07:40:45;;;;;;;3.78;3.47;;;24.10;99.90;;;;;;6246825;23;20016;-87
2022/07/12 07:43:11;;;;;;;3.33;3.03;;;24.10;99.90;;;;;;6222045;23;20020;-88
2022/07/12 07:45:37;;;;;;;4.05;3.20;;;24.20;99.90;;;;;;6251320;23;20016;-88
2022/07/12 07:48:03;;;;;;;4.18;3.10;;;24.30;99.90;;;;;;6250055;23;20027;-89
2022/07/12 07:50:32;;;;;;;2.83;2.58;;;24.60;99.90;;;;;;6221111;23;20431;-87
2022/07/12 07:52:57;;;;;;;3.35;3.05;;;25.00;99.90;;;;;;6248262;23;20020;-89
2022/07/12 07:55:23;;;;;;;3.92;3.13;;;25.20;99.90;;;;;;6247543;23;20016;-87
2022/07/12 07:57:49;;;;;;;3.58;2.42;;;25.50;99.90;;;;;;6220784;23;20012;-91
2022/07/12 08:00:15;;;;;;;3.38;2.53;;;25.90;99.90;;;;;;6218734;23;20402;-90
2022/07/12 08:02:41;;;;;;;3.05;2.70;;;26.40;99.90;;;;;;6219367;23;20063;-90
2022/07/12 08:05:26;;;;;;;2.63;2.42;;;26.60;99.90;;;;;;6218380;23;20067;-89
2022/07/12 08:07:52;;;;;;;3.15;2.85;;;26.90;99.90;;;;;;6245667;23;20027;-88
2022/07/12 08:10:17;;;;;;;3.10;2.78;;;27.40;99.90;;;;;;6219030;23;20020;-87
2022/07/12 08:12:44;;;;;;;2.78;2.33;;;27.70;98.70;;;;;;6246424;23;20440;-88
2022/07/12 08:15:10;;;;;;;5.20;2.65;;;28.00;98.20;;;;;;6218219;23;20012;-89
2022/07/12 08:17:37;;;;;;;4.35;2.20;;;28.30;95.40;;;;;;6245133;23;20103;-89
2022/07/12 08:20:04;;;;;;;2.38;2.15;;;28.60;94.50;;;;;;6218444;23;20024;-91
2022/07/12 08:22:30;;;;;;;2.80;2.10;;;28.80;91.50;;;;;;6218913;23;20027;-90
2022/07/12 08:24:55;;;;;;;2.17;1.85;;;28.90;93.80;;;;;;6245223;23;20012;-89
2022/07/12 08:27:21;;;;;;;2.35;2.08;;;28.90;92.20;;;;;;6245291;23;20016;-89
2022/07/12 08:29:47;;;;;;;3.08;2.22;;;28.80;91.00;;;;;;6193027;23;20024;-88
2022/07/12 08:32:13;;;;;;;4.38;2.28;;;28.90;85.20;;;;;;6218403;23;20391;-89
2022/07/12 08:34:38;;;;;;;2.30;2.10;;;29.00;83.60;;;;;;6218892;23;20029;-89
2022/07/12 08:37:05;;;;;;;3.13;2.33;;;29.10;83.30;;;;;;6193460;23;20074;-88
2022/07/12 08:39:30;;;;;;;2.35;2.15;;;29.30;77.80;;;;;;6218506;23;20066;-90
2022/07/12 08:41:56;;;;;;;2.33;2.13;;;29.60;76.40;;;;;;6193689;23;20016;-89
2022/07/12 08:44:22;;;;;;;3.60;1.77;;;29.40;76.20;;;;;;6244946;23;20027;-90
2022/07/12 08:46:47;;;;;;;2.65;2.38;;;29.40;79.70;;;;;;6217963;23;20440;-90
2022/07/12 08:49:13;;;;;;;2.30;2.10;;;29.10;78.30;;;;;;6217454;23;20276;-90
2022/07/12 08:51:39;;;;;;;2.92;2.10;;;28.90;83.10;;;;;;6218201;23;20031;-89
2022/07/12 08:54:09;;;;;;;3.70;2.50;;;28.90;84.30;;;;;;6218253;23;20016;-90
2022/07/12 08:56:43;;;;;;;2.42;2.22;;;29.10;84.90;;;;;;6244938;23;20060;-91
2022/07/12 08:59:29;;;;;;;2.78;1.77;;;29.30;81.00;;;;;;6218399;23;20042;-91
2022/07/12 09:01:55;;;;;;;3.55;1.95;;;29.80;78.30;;;;;;6244435;23;20070;-89
2022/07/12 09:04:23;;;;;;;4.10;2.80;;;30.40;70.70;;;;;;6245669;23;20016;-90
2022/07/12 09:06:49;;;;;;;5.35;2.75;;;30.70;66.60;;;;;;6218510;23;20020;-87
2022/07/12 09:09:27;;;;;;;2.60;2.25;;;31.20;64.80;;;;;;6218297;23;20077;-92
2022/07/12 09:11:53;;;;;;;5.60;2.90;;;31.70;63.70;;;;;;6219619;23;20061;-90
2022/07/12 09:14:20;;;;;;;17.95;3.60;;;32.10;60.50;;;;;;6218209;23;20101;-90
2022/07/12 09:17:09;;;;;;;7.05;2.63;;;32.50;58.70;;;;;;6192565;23;20167;-91
2022/07/12 09:19:38;;;;;;;3.00;2.63;;;32.70;58.80;;;;;;6244946;23;20109;-89
2022/07/12 09:22:13;;;;;;;3.33;2.70;;;32.80;58.30;;;;;;6244962;23;20012;-89
2022/07/12 09:24:38;;;;;;;2.42;2.22;;;32.90;58.00;;;;;;6218430;23;20353;-88
2022/07/12 09:27:04;;;;;;;2.40;2.08;;;33.30;58.00;;;;;;6215368;23;20020;-90
2022/07/12 09:29:32;;;;;;;4.50;2.22;;;33.70;56.40;;;;;;6217896;23;20056;-91
2022/07/12 09:37:42;;;;;;;2.05;1.85;;;33.70;53.20;;;;;;6221483;23;20031;-91
2022/07/12 09:40:09;;;;;;;1.98;1.88;;;33.00;55.60;;;;;;6224486;23;20452;-92
2022/07/12 09:42:35;;;;;;;4.40;1.92;;;32.70;58.30;;;;;;6199218;23;20016;-90
2022/07/12 09:45:01;;;;;;;8.68;2.60;;;32.50;56.70;;;;;;6248078;23;20016;-91
2022/07/12 09:47:27;;;;;;;2.50;1.75;;;31.90;58.90;;;;;;6220217;23;20099;-91
2022/07/12 09:49:56;;;;;;;3.10;2.03;;;31.40;60.80;;;;;;6218756;23;20012;-90
2022/07/12 09:52:24;;;;;;;3.70;1.63;;;31.30;60.50;;;;;;6246198;23;20432;-90
2022/07/12 09:54:52;;;;;;;3.15;1.70;;;31.30;62.30;;;;;;6220797;23;20039;-91
2022/07/12 09:57:26;;;;;;;1.92;1.83;;;31.50;60.00;;;;;;6219498;23;20239;-90
2022/07/12 09:59:53;;;;;;;4.18;1.60;;;31.30;59.30;;;;;;6245699;23;20020;-90
2022/07/12 10:02:21;;;;;;;1.70;1.60;;;31.30;60.90;;;;;;6219063;23;20382;-90
2022/07/12 10:04:47;;;;;;;2.60;1.60;;;31.60;60.90;;;;;;6219069;23;20024;-94
2022/07/12 10:07:15;;;;;;;2.03;1.50;;;32.40;56.90;;;;;;6245759;23;20055;-89
2022/07/12 10:09:44;;;;;;;3.90;2.20;;;32.80;55.70;;;;;;6218525;23;20412;-92
2022/07/12 10:12:13;;;;;;;1.88;1.52;;;33.30;54.20;;;;;;6218688;23;20016;-90
2022/07/12 10:14:41;;;;;;;1.98;1.55;;;33.60;53.70;;;;;;6245265;23;20055;-91
2022/07/12 10:17:09;;;;;;;2.13;1.70;;;34.00;53.90;;;;;;6217933;23;20066;-92
2022/07/12 10:19:36;;;;;;;3.22;1.70;;;34.40;52.70;;;;;;6244626;23;20031;-92
2022/07/12 10:22:03;;;;;;;6.13;1.23;;;34.60;53.10;;;;;;6216929;23;20016;-91
2022/07/12 10:24:32;;;;;;;5.97;1.65;;;34.80;53.40;;;;;;6218184;23;20042;-91
2022/07/12 10:27:23;;;;;;;3.03;1.17;;;35.10;52.10;;;;;;6218000;23;20020;-91
2022/07/12 10:29:52;;;;;;;1.30;1.00;;;34.90;50.80;;;;;;6074631;23;20026;-91
2022/07/12 10:32:25;;;;;;;2.63;1.30;;;34.60;51.30;;;;;;6099184;23;20104;-91
2022/07/12 10:35:02;;;;;;;1.13;0.80;;;34.40;50.00;;;;;;6096535;23;20065;-93
2022/07/12 10:37:28;;;;;;;1.20;0.90;;;34.60;51.00;;;;;;6123140;23;20058;-91
2022/07/12 10:40:14;;;;;;;1.20;1.10;;;34.40;50.60;;;;;;6125350;23;20018;-92
2022/07/12 10:42:58;;;;;;;3.05;1.40;;;33.80;51.50;;;;;;6100534;23;20481;-90
2022/07/12 10:45:28;;;;;;;1.27;1.10;;;33.50;51.20;;;;;;6124687;23;20060;-89
2022/07/12 10:47:59;;;;;;;2.53;1.50;;;33.30;51.30;;;;;;6125419;23;20026;-93
2022/07/12 10:50:45;;;;;;;1.73;1.20;;;32.80;52.30;;;;;;6125204;23;20093;-90
2022/07/12 10:53:35;;;;;;;1.45;1.27;;;32.30;55.50;;;;;;6100424;23;20022;-92
2022/07/12 10:56:22;;;;;;;2.20;1.13;;;32.10;56.00;;;;;;6124440;23;20028;-90
2022/07/12 10:58:59;;;;;;;3.70;1.42;;;32.30;59.10;;;;;;6100392;23;20081;-92
2022/07/12 11:01:26;;;;;;;1.83;1.35;;;32.70;55.20;;;;;;6100711;23;20022;-88
2022/07/12 11:04:03;;;;;;;1.35;0.93;;;32.80;57.60;;;;;;6124927;23;20028;-91
2022/07/12 11:06:29;;;;;;;1.52;1.20;;;33.00;55.60;;;;;;6169060;23;20016;-93
2022/07/12 11:09:00;;;;;;;1.40;1.00;;;33.30;57.00;;;;;;6195197;23;20017;-91
2022/07/12 11:11:34;;;;;;;3.25;1.50;;;33.80;55.30;;;;;;6247801;23;20020;-91
2022/07/12 11:14:01;;;;;;;2.30;1.00;;;34.30;51.50;;;;;;6221330;23;20340;-92
2022/07/12 11:16:29;;;;;;;1.38;0.95;;;34.50;51.50;;;;;;6221519;23;20052;-93
2022/07/12 11:18:55;;;;;;;1.25;1.10;;;34.60;51.60;;;;;;6248526;23;20444;-92
2022/07/12 11:21:21;;;;;;;1.08;0.95;;;34.70;49.60;;;;;;6221053;23;20012;-92
2022/07/12 11:23:47;;;;;;;2.00;0.73;;;34.60;49.20;;;;;;6248002;23;20023;-92
2022/07/12 11:26:14;;;;;;;0.70;0.70;;;34.50;50.20;;;;;;6248919;23;20091;-93
2022/07/12 11:28:41;;;;;;;0.52;0.52;;;33.90;49.90;;;;;;6248415;23;20020;-92
2022/07/12 11:31:18;;;;;;;0.88;0.68;;;33.60;49.70;;;;;;6247798;23;20013;-92
2022/07/12 11:33:46;;;;;;;1.58;0.70;;;33.50;51.30;;;;;;6248556;23;20024;-87
2022/07/12 11:36:13;;;;;;;1.88;0.70;;;33.60;51.90;;;;;;6195447;23;20024;-92
2022/07/12 11:38:41;;;;;;;1.85;1.10;;;33.90;53.00;;;;;;6195826;23;20058;-92
2022/07/12 11:41:07;;;;;;;3.53;0.95;;;34.20;50.20;;;;;;6246914;23;20017;-93
2022/07/12 11:43:35;;;;;;;0.60;0.60;;;34.50;48.80;;;;;;6220937;23;20343;-93
2022/07/12 11:46:02;;;;;;;1.13;1.00;;;34.70;49.60;;;;;;6222146;23;20016;-94
2022/07/12 11:48:32;;;;;;;0.95;0.70;;;35.00;49.10;;;;;;6194677;23;20522;-93
2022/07/12 11:51:02;;;;;;;1.67;0.65;;;35.10;48.10;;;;;;6246659;23;20325;-91
2022/07/12 11:53:28;;;;;;;4.63;0.70;;;35.20;50.00;;;;;;6195914;23;20027;-89
2022/07/12 11:55:56;;;;;;;1.13;0.70;;;35.40;48.70;;;;;;6220850;23;20336;-93
2022/07/12 11:58:22;;;;;;;0.70;0.60;;;35.10;48.80;;;;;;6247180;23;20023;-93
2022/07/12 12:00:50;;;;;;;2.63;0.73;;;34.70;48.90;;;;;;6247053;23;20355;-93
2022/07/12 12:03:17;;;;;;;2.85;0.90;;;34.50;49.60;;;;;;6247372;23;20013;-94
2022/07/12 12:05:48;;;;;;;1.05;0.82;;;34.20;48.70;;;;;;6245892;23;20016;-89
2022/07/12 12:08:15;;;;;;;2.67;0.70;;;34.10;48.60;;;;;;6195131;23;20020;-92
2022/07/12 12:10:41;;;;;;;2.60;0.85;;;34.00;49.80;;;;;;6246552;22;20058;-92
2022/07/12 12:13:15;;;;;;;2.10;0.65;;;33.90;52.10;;;;;;6220317;23;20023;-92
2022/07/12 12:15:48;;;;;;;1.60;0.50;;;34.00;51.10;;;;;;6246896;23;20023;-90
2022/07/12 12:18:14;;;;;;;3.35;0.70;;;34.00;50.70;;;;;;6221213;23;20023;-93
2022/07/12 12:20:41;;;;;;;0.95;0.80;;;34.00;50.90;;;;;;6246902;23;20016;-93
2022/07/12 12:23:19;;;;;;;1.13;0.65;;;34.10;51.80;;;;;;6219924;23;20012;-92
2022/07/12 12:25:45;;;;;;;1.27;0.50;;;34.10;51.80;;;;;;6246885;23;20012;-90
2022/07/12 12:28:12;;;;;;;1.73;0.60;;;34.10;50.20;;;;;;6220083;23;20048;-91
2022/07/12 12:30:54;;;;;;;2.17;0.57;;;34.10;49.50;;;;;;6249089;23;20044;-92
2022/07/12 12:33:35;;;;;;;0.98;0.70;;;34.20;49.10;;;;;;6220728;23;20016;-91
2022/07/12 12:36:25;;;;;;;0.70;0.60;;;34.00;48.20;;;;;;6194965;23;20313;-91
2022/07/12 12:38:53;;;;;;;0.50;0.47;;;33.90;48.40;;;;;;6221361;23;20024;-92
2022/07/12 12:41:22;;;;;;;2.30;0.60;;;33.70;49.70;;;;;;6246533;22;20020;-88
2022/07/12 12:43:55;;;;;;;0.77;0.53;;;33.60;49.40;;;;;;6219792;23;20024;-87
2022/07/12 12:46:21;;;;;;;0.98;0.60;;;33.60;49.40;;;;;;6219377;23;20020;-89
2022/07/12 12:48:47;;;;;;;0.52;0.52;;;33.70;48.90;;;;;;6246417;23;20066;-90
2022/07/12 12:51:13;;;;;;;0.82;0.60;;;33.50;49.40;;;;;;6245583;23;20443;-91
2022/07/12 12:53:40;;;;;;;1.27;0.52;;;33.20;49.30;;;;;;6220357;23;20339;-92
2022/07/12 12:56:13;;;;;;;2.20;0.60;;;33.00;49.40;;;;;;6246259;23;20016;-91
2022/07/12 12:58:40;;;;;;;0.57;0.57;;;32.90;50.30;;;;;;6246273;23;20012;-90